Time;durP1;ratioP1;P1;durP2;ratioP2;P2;SDS_P1;SDS_P2;PMS_P1;PMS_P2;Temp;Humidity;BMP_temperature;BMP_pressure;BME280_temperature;BME280_humidity;BME280_pressure;Samples;Min_cycle;Max_cycle;Signal;HPM_P1;HPM_P2
2022/03/27 00:01:34;;;;;;;12.68;9.35;;;;;;;;;;5098839;28;20024;-58
2022/03/27 00:04:01;;;;;;;15.52;9.85;;;;;;;;;;5092029;28;20055;-59
2022/03/27 00:06:27;;;;;;;14.40;9.32;;;;;;;;;;5100313;28;20024;-57
2022/03/27 00:08:53;;;;;;;16.02;10.40;;;;;;;;;;5101950;28;20035;-58
2022/03/27 00:11:27;;;;;;;14.63;9.80;;;;;;;;;;5098524;28;20119;-58
2022/03/27 00:13:58;;;;;;;15.10;9.80;;;;;;;;;;5095789;28;20119;-58
2022/03/27 00:16:24;;;;;;;14.15;10.05;;;;;;;;;;5092102;28;20032;-58
2022/03/27 00:18:50;;;;;;;13.43;9.85;;;;;;;;;;5093704;28;20031;-58
2022/03/27 00:21:17;;;;;;;15.57;10.68;;;;;;;;;;5095759;28;20024;-58
2022/03/27 00:23:43;;;;;;;17.70;11.52;;;;;;;;;;5093458;28;20023;-58
2022/03/27 00:26:10;;;;;;;18.45;10.32;;;;;;;;;;5094453;28;20583;-58
2022/03/27 00:28:36;;;;;;;16.10;10.57;;;;;;;;;;5098262;28;20026;-58
2022/03/27 00:31:04;;;;;;;14.95;9.48;;;;;;;;;;5095523;28;20168;-58
2022/03/27 00:33:30;;;;;;;14.07;9.65;;;;;;;;;;5095875;28;20114;-56
2022/03/27 00:35:56;;;;;;;17.20;10.63;;;;;;;;;;5094015;28;20296;-57
2022/03/27 00:38:22;;;;;;;16.77;9.70;;;;;;;;;;5096248;28;20069;-57
2022/03/27 00:40:52;;;;;;;14.18;9.52;;;;;;;;;;5097026;28;20113;-58
2022/03/27 00:43:18;;;;;;;14.32;9.50;;;;;;;;;;5093615;28;20351;-58
2022/03/27 00:45:45;;;;;;;14.45;9.38;;;;;;;;;;5094102;28;20038;-58
2022/03/27 00:48:11;;;;;;;13.13;9.38;;;;;;;;;;5095151;28;20046;-58
2022/03/27 00:50:37;;;;;;;13.13;9.60;;;;;;;;;;5097321;28;20024;-58
2022/03/27 00:53:04;;;;;;;12.73;9.30;;;;;;;;;;5094634;28;20068;-59
2022/03/27 00:55:30;;;;;;;11.68;9.02;;;;;;;;;;5100469;28;20059;-58
2022/03/27 00:57:56;;;;;;;14.32;9.30;;;;;;;;;;5098214;28;20024;-58
2022/03/27 01:00:46;;;;;;;16.65;9.32;;;;;;;;;;5096711;28;20023;-58
2022/03/27 01:03:17;;;;;;;16.00;9.18;;;;;;;;;;5100908;28;20118;-58
2022/03/27 01:05:44;;;;;;;15.93;9.50;;;;;;;;;;5096525;28;20116;-58
2022/03/27 01:08:12;;;;;;;14.07;9.00;;;;;;;;;;5096046;28;20024;-57
2022/03/27 01:10:38;;;;;;;12.70;8.52;;;;;;;;;;5090664;28;20038;-58
2022/03/27 01:13:05;;;;;;;11.60;8.68;;;;;;;;;;5095680;28;20048;-58
2022/03/27 01:15:32;;;;;;;14.85;8.25;;;;;;;;;;5095213;28;20020;-58
2022/03/27 01:17:58;;;;;;;15.80;8.77;;;;;;;;;;5099335;28;20038;-57
2022/03/27 01:20:30;;;;;;;15.52;8.52;;;;;;;;;;5095240;28;20041;-58
2022/03/27 01:22:56;;;;;;;12.32;7.85;;;;;;;;;;5097744;28;20444;-58
2022/03/27 01:25:22;;;;;;;12.23;8.55;;;;;;;;;;5095049;28;20065;-58
2022/03/27 01:27:48;;;;;;;11.52;8.10;;;;;;;;;;5096865;28;20019;-58
2022/03/27 01:30:14;;;;;;;14.25;8.43;;;;;;;;;;5097614;28;20402;-58
2022/03/27 01:32:40;;;;;;;10.68;8.18;;;;;;;;;;5096582;27;20047;-58
2022/03/27 01:35:06;;;;;;;14.20;9.00;;;;;;;;;;5097711;28;20028;-58
2022/03/27 01:37:32;;;;;;;15.57;8.85;;;;;;;;;;5096266;28;20509;-58
2022/03/27 01:39:58;;;;;;;14.20;9.32;;;;;;;;;;5097337;28;20107;-57
2022/03/27 01:42:24;;;;;;;14.95;10.07;;;;;;;;;;5097321;28;20115;-58
2022/03/27 01:44:51;;;;;;;15.73;9.70;;;;;;;;;;5097453;28;20043;-58
2022/03/27 01:47:17;;;;;;;15.57;9.23;;;;;;;;;;5095892;28;20035;-57
2022/03/27 01:49:43;;;;;;;14.70;9.70;;;;;;;;;;5099975;28;20034;-58
2022/03/27 01:52:09;;;;;;;15.57;10.25;;;;;;;;;;5098222;28;20044;-58
2022/03/27 01:54:35;;;;;;;15.77;10.65;;;;;;;;;;5097534;28;20568;-57
2022/03/27 01:57:02;;;;;;;15.73;9.82;;;;;;;;;;5097107;28;20050;-58
2022/03/27 01:59:28;;;;;;;19.38;11.18;;;;;;;;;;5097375;28;20383;-58
2022/03/27 02:01:54;;;;;;;15.40;10.20;;;;;;;;;;5095196;28;20122;-57
2022/03/27 02:04:20;;;;;;;16.02;11.05;;;;;;;;;;5098961;28;20087;-58
2022/03/27 02:06:46;;;;;;;16.05;11.07;;;;;;;;;;5096700;28;20376;-57
2022/03/27 02:09:12;;;;;;;19.15;12.15;;;;;;;;;;5097151;28;20027;-58
2022/03/27 02:11:39;;;;;;;16.15;11.50;;;;;;;;;;5098271;28;20401;-57
2022/03/27 02:14:05;;;;;;;18.75;12.18;;;;;;;;;;5094739;28;20015;-58
2022/03/27 02:16:31;;;;;;;16.05;12.00;;;;;;;;;;5097244;28;20585;-58
2022/03/27 02:18:57;;;;;;;17.58;12.23;;;;;;;;;;5096579;28;20103;-57
2022/03/27 02:21:23;;;;;;;18.40;12.80;;;;;;;;;;5099488;28;20020;-57
2022/03/27 02:23:49;;;;;;;17.65;12.15;;;;;;;;;;5096408;28;20027;-57
2022/03/27 02:26:15;;;;;;;18.30;12.55;;;;;;;;;;5099066;28;20577;-57
2022/03/27 02:28:42;;;;;;;20.20;12.68;;;;;;;;;;5100679;28;20035;-57
2022/03/27 02:31:09;;;;;;;16.95;11.85;;;;;;;;;;5097483;28;20515;-57
2022/03/27 02:33:35;;;;;;;17.42;12.20;;;;;;;;;;5093318;28;20054;-57
2022/03/27 02:36:02;;;;;;;17.90;12.35;;;;;;;;;;5089729;28;20034;-58
2022/03/27 02:38:28;;;;;;;19.17;12.63;;;;;;;;;;5095647;28;20068;-57
2022/03/27 02:40:54;;;;;;;16.77;11.95;;;;;;;;;;5092063;28;20123;-57
2022/03/27 02:43:20;;;;;;;20.20;13.18;;;;;;;;;;5094977;28;20126;-58
2022/03/27 02:45:48;;;;;;;20.08;12.55;;;;;;;;;;5092322;28;20027;-58
2022/03/27 02:48:14;;;;;;;20.48;13.48;;;;;;;;;;5098648;28;20431;-58
2022/03/27 02:50:43;;;;;;;21.70;12.43;;;;;;;;;;5094530;28;20046;-58
2022/03/27 02:53:09;;;;;;;19.50;13.70;;;;;;;;;;5095242;28;20138;-57
2022/03/27 02:55:35;;;;;;;19.05;13.68;;;;;;;;;;5094250;28;20026;-57
2022/03/27 02:58:02;;;;;;;18.17;12.85;;;;;;;;;;5097958;28;20429;-57
2022/03/27 03:00:29;;;;;;;16.40;12.23;;;;;;;;;;5098000;28;20028;-58
2022/03/27 03:02:56;;;;;;;18.45;13.65;;;;;;;;;;5098027;28;20059;-57
2022/03/27 03:05:22;;;;;;;19.50;13.32;;;;;;;;;;5097315;28;20024;-58
2022/03/27 03:07:48;;;;;;;20.38;13.40;;;;;;;;;;5095731;28;20024;-57
2022/03/27 03:10:14;;;;;;;18.70;14.00;;;;;;;;;;5098037;28;20146;-58
2022/03/27 03:12:41;;;;;;;22.38;14.35;;;;;;;;;;5095572;28;20207;-57
2022/03/27 03:15:07;;;;;;;21.05;14.63;;;;;;;;;;5098785;28;20022;-58
2022/03/27 03:17:34;;;;;;;20.83;15.30;;;;;;;;;;5100568;28;20020;-58
2022/03/27 03:20:00;;;;;;;21.02;14.70;;;;;;;;;;5100790;28;20023;-57
2022/03/27 03:22:27;;;;;;;22.13;14.23;;;;;;;;;;5098906;28;20506;-58
2022/03/27 03:24:53;;;;;;;24.00;14.63;;;;;;;;;;5100044;28;20050;-58
2022/03/27 03:27:19;;;;;;;23.30;14.35;;;;;;;;;;5093539;28;20563;-58
2022/03/27 03:29:45;;;;;;;22.98;15.10;;;;;;;;;;5097618;28;20033;-58
2022/03/27 03:32:11;;;;;;;21.98;15.90;;;;;;;;;;5096709;28;20035;-57
2022/03/27 03:34:37;;;;;;;23.95;17.15;;;;;;;;;;5097438;28;20467;-58
2022/03/27 03:37:03;;;;;;;23.20;17.08;;;;;;;;;;5101494;28;20054;-57
2022/03/27 03:39:29;;;;;;;25.17;17.98;;;;;;;;;;5103210;28;20023;-57
2022/03/27 03:41:55;;;;;;;24.42;16.75;;;;;;;;;;5101693;28;20152;-58
2022/03/27 03:44:21;;;;;;;25.88;18.60;;;;;;;;;;5097297;28;20015;-57
2022/03/27 03:46:48;;;;;;;26.20;18.63;;;;;;;;;;5100551;28;20031;-57
2022/03/27 03:49:14;;;;;;;26.80;19.88;;;;;;;;;;5100925;28;20058;-56
2022/03/27 03:51:41;;;;;;;27.25;19.48;;;;;;;;;;5101505;27;20130;-57
2022/03/27 03:54:07;;;;;;;29.95;20.20;;;;;;;;;;5098654;28;20035;-58
2022/03/27 03:56:33;;;;;;;29.73;21.77;;;;;;;;;;5101947;28;20143;-56
2022/03/27 03:58:59;;;;;;;33.97;22.17;;;;;;;;;;5097730;28;20028;-58
2022/03/27 04:01:25;;;;;;;38.88;25.38;;;;;;;;;;5096227;28;20547;-58
2022/03/27 04:03:51;;;;;;;48.63;27.63;;;;;;;;;;5096921;28;20034;-57
2022/03/27 04:06:17;;;;;;;66.25;31.98;;;;;;;;;;5098825;27;20085;-58
2022/03/27 04:08:43;;;;;;;72.82;35.70;;;;;;;;;;5098541;28;20125;-58
2022/03/27 04:11:16;;;;;;;89.90;39.55;;;;;;;;;;5096863;28;20022;-57
2022/03/27 04:13:42;;;;;;;111.43;49.63;;;;;;;;;;5094845;28;20123;-58
2022/03/27 04:16:08;;;;;;;118.43;50.03;;;;;;;;;;5095883;28;20561;-58
2022/03/27 04:18:34;;;;;;;142.73;57.63;;;;;;;;;;5101072;27;20051;-58
2022/03/27 04:20:59;;;;;;;148.02;58.83;;;;;;;;;;5093823;28;20395;-57
2022/03/27 04:23:25;;;;;;;156.52;60.85;;;;;;;;;;5098282;28;20027;-58
2022/03/27 04:25:51;;;;;;;153.70;63.80;;;;;;;;;;5097885;28;20015;-57
2022/03/27 04:28:17;;;;;;;177.63;66.15;;;;;;;;;;5098664;28;20043;-58
2022/03/27 04:30:43;;;;;;;169.77;66.03;;;;;;;;;;5094038;28;20484;-58
2022/03/27 04:33:10;;;;;;;173.18;68.97;;;;;;;;;;5098094;28;20118;-58
2022/03/27 04:35:36;;;;;;;176.98;68.30;;;;;;;;;;5098314;28;20016;-57
2022/03/27 04:38:02;;;;;;;188.45;73.63;;;;;;;;;;5096330;28;20028;-58
2022/03/27 04:40:28;;;;;;;182.20;71.32;;;;;;;;;;5094661;28;20016;-58
2022/03/27 04:42:54;;;;;;;187.85;70.40;;;;;;;;;;5092804;28;20097;-58
2022/03/27 04:45:20;;;;;;;194.18;70.15;;;;;;;;;;5112584;27;20035;-57
2022/03/27 04:47:46;;;;;;;199.32;72.70;;;;;;;;;;5098098;28;20024;-58
2022/03/27 04:50:12;;;;;;;203.48;70.03;;;;;;;;;;5097948;28;20869;-58
2022/03/27 04:52:38;;;;;;;193.40;69.05;;;;;;;;;;5096408;28;20493;-58
2022/03/27 04:55:05;;;;;;;192.35;71.13;;;;;;;;;;5095375;28;20028;-57
2022/03/27 04:57:35;;;;;;;199.15;73.30;;;;;;;;;;5097721;28;20040;-57
2022/03/27 05:00:01;;;;;;;194.13;68.47;;;;;;;;;;5095709;28;20032;-58
2022/03/27 05:02:28;;;;;;;194.77;69.18;;;;;;;;;;5095730;28;20028;-58
2022/03/27 05:04:54;;;;;;;196.93;71.40;;;;;;;;;;5097724;28;20182;-58
2022/03/27 05:07:20;;;;;;;194.07;66.38;;;;;;;;;;5107989;27;20107;-57
2022/03/27 05:09:46;;;;;;;209.38;73.07;;;;;;;;;;5098774;28;20377;-58
2022/03/27 05:12:12;;;;;;;197.50;70.20;;;;;;;;;;5098875;28;20032;-58
2022/03/27 05:14:38;;;;;;;197.55;69.72;;;;;;;;;;5099215;28;20066;-59
2022/03/27 05:17:04;;;;;;;204.25;72.05;;;;;;;;;;5097080;28;20066;-58
2022/03/27 05:19:30;;;;;;;191.60;69.80;;;;;;;;;;5097545;28;20075;-58
2022/03/27 05:21:56;;;;;;;190.75;67.00;;;;;;;;;;5100315;28;20043;-58
2022/03/27 05:24:23;;;;;;;198.43;72.55;;;;;;;;;;5095053;28;20328;-58
2022/03/27 05:26:49;;;;;;;191.70;69.22;;;;;;;;;;5096679;28;20020;-58
2022/03/27 05:29:15;;;;;;;202.57;72.80;;;;;;;;;;5097768;28;20447;-58
2022/03/27 05:31:41;;;;;;;199.30;72.47;;;;;;;;;;5093369;28;20030;-58
2022/03/27 05:34:07;;;;;;;193.45;69.20;;;;;;;;;;5097945;28;20273;-58
2022/03/27 05:36:33;;;;;;;190.20;69.70;;;;;;;;;;5095460;28;20027;-58
2022/03/27 05:38:59;;;;;;;173.63;66.93;;;;;;;;;;5098320;28;20042;-58
2022/03/27 05:41:26;;;;;;;201.48;70.18;;;;;;;;;;5096919;28;20029;-58
2022/03/27 05:43:52;;;;;;;200.68;69.18;;;;;;;;;;5095763;28;20535;-58
2022/03/27 05:46:17;;;;;;;210.90;73.32;;;;;;;;;;5098249;28;20107;-58
2022/03/27 05:48:44;;;;;;;207.38;74.05;;;;;;;;;;5098035;28;20398;-58
2022/03/27 05:51:10;;;;;;;192.30;70.32;;;;;;;;;;5099830;28;20430;-59
2022/03/27 05:53:36;;;;;;;189.10;71.40;;;;;;;;;;5100483;28;20020;-58
2022/03/27 05:56:02;;;;;;;184.98;69.90;;;;;;;;;;5094888;28;20815;-58
2022/03/27 05:58:28;;;;;;;202.00;72.75;;;;;;;;;;5098076;28;20039;-58
2022/03/27 06:00:54;;;;;;;185.65;71.10;;;;;;;;;;5097359;28;20097;-58
2022/03/27 06:03:20;;;;;;;198.00;72.43;;;;;;;;;;5097093;28;20139;-58
2022/03/27 06:05:46;;;;;;;205.57;77.45;;;;;;;;;;5095913;28;20351;-58
2022/03/27 06:08:12;;;;;;;205.65;72.88;;;;;;;;;;5096641;28;20467;-59
2022/03/27 06:10:40;;;;;;;209.43;72.43;;;;;;;;;;5098552;28;20110;-58
2022/03/27 06:13:06;;;;;;;215.27;75.63;;;;;;;;;;5098410;28;20024;-57
2022/03/27 06:15:33;;;;;;;209.23;74.28;;;;;;;;;;5097684;28;20038;-58
2022/03/27 06:17:59;;;;;;;211.55;75.72;;;;;;;;;;5093383;28;20043;-57
2022/03/27 06:20:26;;;;;;;199.93;70.55;;;;;;;;;;5100805;28;20474;-58
2022/03/27 06:22:53;;;;;;;204.57;71.57;;;;;;;;;;5097153;28;20467;-58
2022/03/27 06:25:20;;;;;;;183.95;69.10;;;;;;;;;;5095403;28;20119;-57
2022/03/27 06:27:46;;;;;;;169.30;66.10;;;;;;;;;;5098126;28;20058;-58
2022/03/27 06:30:15;;;;;;;170.02;65.30;;;;;;;;;;5096599;28;20177;-58
2022/03/27 06:32:42;;;;;;;170.48;63.35;;;;;;;;;;5094934;28;20078;-58
2022/03/27 06:35:08;;;;;;;171.27;64.20;;;;;;;;;;5094914;28;20107;-57
2022/03/27 06:37:34;;;;;;;171.85;65.95;;;;;;;;;;5097524;28;20088;-58
2022/03/27 06:40:02;;;;;;;182.70;65.80;;;;;;;;;;5097031;28;20126;-58
2022/03/27 06:42:28;;;;;;;180.50;63.42;;;;;;;;;;5094678;28;20004;-58
2022/03/27 06:44:54;;;;;;;162.70;63.10;;;;;;;;;;5095847;28;20074;-58
2022/03/27 06:47:21;;;;;;;153.60;60.70;;;;;;;;;;5101981;28;20730;-57
2022/03/27 06:49:48;;;;;;;157.05;62.60;;;;;;;;;;5100894;28;20383;-58
2022/03/27 06:52:15;;;;;;;164.27;63.50;;;;;;;;;;5101874;28;20027;-57
2022/03/27 06:54:41;;;;;;;169.43;65.07;;;;;;;;;;5095808;28;20016;-58
2022/03/27 06:57:07;;;;;;;168.82;63.03;;;;;;;;;;5102818;28;20016;-58
2022/03/27 07:05:03;;;;;;;145.23;60.10;;;;;;;;;;5097241;28;20171;-58
2022/03/27 07:07:29;;;;;;;167.20;62.58;;;;;;;;;;5102679;28;20023;-58
2022/03/27 07:09:55;;;;;;;162.65;62.42;;;;;;;;;;5096852;28;20046;-57
2022/03/27 07:12:21;;;;;;;153.65;62.58;;;;;;;;;;5099429;28;20352;-58
2022/03/27 07:14:47;;;;;;;158.25;63.95;;;;;;;;;;5102348;28;20035;-57
2022/03/27 07:17:17;;;;;;;151.50;62.80;;;;;;;;;;5098495;28;20051;-58
2022/03/27 07:19:43;;;;;;;154.10;62.55;;;;;;;;;;5104001;28;20483;-58
2022/03/27 07:22:09;;;;;;;140.68;59.45;;;;;;;;;;5098501;28;20468;-57
2022/03/27 07:24:35;;;;;;;148.40;63.17;;;;;;;;;;5100763;28;20020;-58
2022/03/27 07:27:02;;;;;;;162.18;65.10;;;;;;;;;;5096657;28;20097;-58
2022/03/27 07:29:30;;;;;;;143.25;63.83;;;;;;;;;;5102989;28;20020;-57
2022/03/27 07:31:57;;;;;;;156.63;64.60;;;;;;;;;;5097103;28;20644;-57
2022/03/27 07:34:23;;;;;;;158.60;64.63;;;;;;;;;;5097512;28;20024;-57
2022/03/27 07:36:49;;;;;;;153.77;63.53;;;;;;;;;;5094166;28;20253;-56
2022/03/27 07:39:15;;;;;;;167.55;65.85;;;;;;;;;;5098876;28;20407;-58
2022/03/27 07:41:41;;;;;;;171.68;69.18;;;;;;;;;;5100549;28;20081;-58
2022/03/27 07:44:07;;;;;;;158.10;67.10;;;;;;;;;;5098187;28;20100;-57
2022/03/27 07:46:33;;;;;;;150.73;63.25;;;;;;;;;;5099320;27;20138;-58
2022/03/27 07:48:59;;;;;;;147.82;63.92;;;;;;;;;;5096712;28;20119;-58
2022/03/27 07:51:26;;;;;;;145.38;63.40;;;;;;;;;;5100320;28;20039;-58
2022/03/27 07:53:52;;;;;;;143.00;62.88;;;;;;;;;;5100085;28;20114;-58
2022/03/27 07:56:18;;;;;;;189.10;95.72;;;;;;;;;;5099064;28;20019;-58
2022/03/27 07:58:44;;;;;;;146.63;66.88;;;;;;;;;;5094426;28;20035;-57
2022/03/27 08:01:12;;;;;;;148.88;65.45;;;;;;;;;;5096170;28;20103;-57
2022/03/27 08:03:39;;;;;;;151.05;66.30;;;;;;;;;;5098414;28;20065;-58
2022/03/27 08:06:06;;;;;;;149.02;70.43;;;;;;;;;;5097651;28;20114;-58
2022/03/27 08:08:32;;;;;;;155.57;69.53;;;;;;;;;;5100253;28;20023;-58
2022/03/27 08:10:58;;;;;;;152.93;66.30;;;;;;;;;;5094291;28;20414;-58
2022/03/27 08:13:24;;;;;;;151.25;66.63;;;;;;;;;;5098575;28;20142;-58
2022/03/27 08:15:51;;;;;;;145.32;64.60;;;;;;;;;;5097559;28;20419;-57
2022/03/27 08:18:17;;;;;;;152.15;69.93;;;;;;;;;;5098175;28;20015;-58
2022/03/27 08:20:43;;;;;;;150.13;67.15;;;;;;;;;;5091119;28;20436;-58
2022/03/27 08:23:09;;;;;;;144.88;65.80;;;;;;;;;;5095999;28;20017;-58
2022/03/27 08:28:20;;;;;;;163.82;71.78;;;;;;;;;;5098261;28;20654;-58
2022/03/27 08:30:50;;;;;;;165.68;72.70;;;;;;;;;;5094555;28;20103;-58
2022/03/27 08:33:16;;;;;;;161.75;69.63;;;;;;;;;;5096901;28;20024;-57
2022/03/27 08:35:43;;;;;;;162.30;71.30;;;;;;;;;;5094823;28;20034;-57
2022/03/27 08:38:12;;;;;;;160.93;73.50;;;;;;;;;;5095471;28;20313;-57
2022/03/27 08:40:39;;;;;;;166.80;73.00;;;;;;;;;;5099638;27;20459;-58
2022/03/27 08:43:13;;;;;;;175.00;78.50;;;;;;;;;;5093300;28;20058;-58
2022/03/27 08:45:39;;;;;;;192.75;82.05;;;;;;;;;;5096332;28;20097;-58
2022/03/27 08:48:05;;;;;;;189.05;81.20;;;;;;;;;;5096153;28;20084;-57
2022/03/27 08:50:34;;;;;;;189.63;78.55;;;;;;;;;;5100047;28;20023;-58
2022/03/27 08:53:05;;;;;;;179.45;80.28;;;;;;;;;;5097825;28;20103;-58
2022/03/27 08:55:40;;;;;;;176.77;77.68;;;;;;;;;;5094227;28;20038;-57
2022/03/27 08:58:07;;;;;;;171.15;77.38;;;;;;;;;;5097328;28;20076;-57
2022/03/27 09:00:33;;;;;;;166.70;74.63;;;;;;;;;;5096541;28;20123;-58
2022/03/27 09:03:01;;;;;;;162.48;73.70;;;;;;;;;;5099172;27;20019;-58
2022/03/27 09:05:27;;;;;;;147.75;68.00;;;;;;;;;;5096436;28;20421;-58
2022/03/27 09:07:54;;;;;;;145.70;69.32;;;;;;;;;;5098835;28;20024;-58
2022/03/27 09:10:21;;;;;;;135.40;64.15;;;;;;;;;;5096165;28;20346;-57
2022/03/27 09:12:48;;;;;;;137.30;67.30;;;;;;;;;;5100751;28;20024;-59
2022/03/27 09:15:16;;;;;;;134.18;65.28;;;;;;;;;;5098538;28;20027;-58
2022/03/27 09:17:59;;;;;;;147.73;69.90;;;;;;;;;;5097139;28;20076;-57
2022/03/27 09:20:31;;;;;;;167.10;74.13;;;;;;;;;;5096963;28;20399;-58
2022/03/27 09:23:04;;;;;;;167.80;75.82;;;;;;;;;;5096343;28;20273;-57
2022/03/27 09:25:42;;;;;;;162.40;75.32;;;;;;;;;;5097064;28;20035;-57
2022/03/27 09:28:08;;;;;;;146.98;69.03;;;;;;;;;;5098193;28;20091;-57
2022/03/27 09:30:36;;;;;;;146.07;69.20;;;;;;;;;;5095148;28;20042;-58
2022/03/27 09:33:02;;;;;;;147.18;69.15;;;;;;;;;;5094707;28;20119;-58
2022/03/27 09:35:28;;;;;;;140.90;67.25;;;;;;;;;;5097399;28;20028;-58
2022/03/27 09:37:54;;;;;;;148.43;68.32;;;;;;;;;;5094102;28;20362;-58
2022/03/27 09:40:21;;;;;;;144.32;69.10;;;;;;;;;;5097008;28;20220;-58
2022/03/27 09:42:47;;;;;;;143.90;71.70;;;;;;;;;;5095720;28;20055;-57
2022/03/27 09:45:17;;;;;;;141.60;70.68;;;;;;;;;;5094947;28;20132;-58
2022/03/27 09:47:49;;;;;;;134.05;68.97;;;;;;;;;;5092848;28;20039;-58
2022/03/27 09:50:34;;;;;;;144.27;72.30;;;;;;;;;;5097776;28;20403;-58
2022/03/27 09:53:19;;;;;;;137.65;71.32;;;;;;;;;;5096853;28;20029;-58
2022/03/27 09:55:45;;;;;;;123.50;63.80;;;;;;;;;;5097854;28;20019;-58
2022/03/27 09:58:12;;;;;;;128.75;65.70;;;;;;;;;;5091900;28;20476;-58
2022/03/27 10:00:38;;;;;;;120.03;62.30;;;;;;;;;;5093829;28;20024;-58
2022/03/27 10:03:11;;;;;;;114.47;61.50;;;;;;;;;;5094809;28;20087;-58
2022/03/27 10:05:38;;;;;;;111.40;59.67;;;;;;;;;;5093439;28;20054;-58
2022/03/27 10:08:05;;;;;;;104.57;57.05;;;;;;;;;;5096719;28;20160;-58
2022/03/27 10:10:31;;;;;;;95.55;52.40;;;;;;;;;;5098667;27;20019;-58
2022/03/27 10:12:57;;;;;;;95.32;50.90;;;;;;;;;;5094374;28;20093;-58
2022/03/27 10:15:28;;;;;;;101.10;54.67;;;;;;;;;;5093700;28;20300;-58
2022/03/27 10:18:00;;;;;;;94.47;53.60;;;;;;;;;;5097598;28;20011;-58
2022/03/27 10:20:30;;;;;;;98.32;55.10;;;;;;;;;;5095273;28;20068;-58
2022/03/27 10:23:07;;;;;;;102.57;57.15;;;;;;;;;;5093307;28;20103;-57
2022/03/27 10:25:50;;;;;;;87.60;51.65;;;;;;;;;;5094880;28;20093;-58
2022/03/27 10:28:18;;;;;;;90.95;52.80;;;;;;;;;;5093409;28;20369;-58
2022/03/27 10:30:44;;;;;;;107.72;60.72;;;;;;;;;;5094606;28;20031;-57
2022/03/27 10:33:11;;;;;;;107.72;61.40;;;;;;;;;;5090568;28;20076;-58
2022/03/27 10:35:48;;;;;;;107.35;60.22;;;;;;;;;;5096633;28;20417;-58
2022/03/27 10:38:44;;;;;;;97.97;58.15;;;;;;;;;;5092039;28;20056;-58
2022/03/27 10:41:16;;;;;;;99.80;58.50;;;;;;;;;;5090844;28;20043;-58
2022/03/27 10:43:49;;;;;;;90.65;55.00;;;;;;;;;;5094336;28;20050;-58
2022/03/27 10:46:15;;;;;;;;;;;;;;;;;;5091446;28;20047;-58
2022/03/27 10:48:42;;;;;;;85.90;54.03;;;;;;;;;;5092300;28;20015;-57
2022/03/27 10:51:10;;;;;;;94.13;54.60;;;;;;;;;;5095523;28;20020;-58
2022/03/27 10:53:36;;;;;;;82.88;51.75;;;;;;;;;;5095769;28;20035;-58
2022/03/27 10:56:03;;;;;;;81.43;50.03;;;;;;;;;;5094451;28;20122;-58
2022/03/27 10:58:33;;;;;;;79.03;49.33;;;;;;;;;;5091130;28;20119;-58
2022/03/27 11:01:00;;;;;;;81.75;49.15;;;;;;;;;;5092730;28;20027;-58
2022/03/27 11:03:46;;;;;;;77.55;46.40;;;;;;;;;;5092683;28;20028;-58
2022/03/27 11:06:32;;;;;;;74.43;46.25;;;;;;;;;;5096284;28;20105;-60
2022/03/27 11:08:59;;;;;;;75.47;46.55;;;;;;;;;;5094010;28;20122;-59
2022/03/27 11:11:34;;;;;;;71.50;44.20;;;;;;;;;;5097256;28;20019;-59
2022/03/27 11:14:01;;;;;;;63.80;43.55;;;;;;;;;;5091392;28;20110;-60
2022/03/27 11:16:27;;;;;;;74.05;45.78;;;;;;;;;;5099541;28;20028;-60
2022/03/27 11:18:53;;;;;;;74.35;45.72;;;;;;;;;;5093584;28;20024;-59
2022/03/27 11:21:28;;;;;;;58.13;39.15;;;;;;;;;;5098290;28;20042;-60
2022/03/27 11:23:55;;;;;;;71.70;41.65;;;;;;;;;;5093294;28;20027;-60
2022/03/27 11:26:21;;;;;;;50.95;31.73;;;;;;;;;;5093500;28;20035;-59
2022/03/27 11:28:51;;;;;;;53.78;34.15;;;;;;;;;;5088469;28;20042;-57
2022/03/27 11:31:17;;;;;;;46.47;30.80;;;;;;;;;;5094855;28;20039;-59
2022/03/27 11:33:46;;;;;;;45.67;31.23;;;;;;;;;;5096747;28;20023;-59
2022/03/27 11:36:15;;;;;;;40.33;28.33;;;;;;;;;;5096560;28;20456;-58
2022/03/27 11:38:58;;;;;;;45.60;30.00;;;;;;;;;;5098870;28;20083;-58
2022/03/27 11:41:30;;;;;;;43.47;29.15;;;;;;;;;;5094532;28;20573;-58
2022/03/27 11:43:57;;;;;;;45.53;30.27;;;;;;;;;;5097270;28;20035;-58
2022/03/27 11:46:28;;;;;;;41.58;27.42;;;;;;;;;;5098112;28;20035;-58
2022/03/27 11:48:58;;;;;;;38.65;27.13;;;;;;;;;;5095085;28;20142;-58
2022/03/27 11:51:24;;;;;;;39.17;27.23;;;;;;;;;;5097406;28;20347;-58
2022/03/27 11:53:52;;;;;;;41.45;26.88;;;;;;;;;;5098598;28;20382;-58
2022/03/27 11:56:18;;;;;;;52.85;37.03;;;;;;;;;;5097780;28;20324;-60
2022/03/27 11:59:01;;;;;;;39.45;26.65;;;;;;;;;;5097327;28;20027;-58
2022/03/27 12:01:27;;;;;;;34.20;24.35;;;;;;;;;;5096249;28;20069;-57
2022/03/27 12:03:57;;;;;;;36.88;23.05;;;;;;;;;;5092442;28;20095;-58
2022/03/27 12:06:26;;;;;;;33.00;22.23;;;;;;;;;;5096354;28;20566;-58
2022/03/27 12:08:52;;;;;;;34.30;23.38;;;;;;;;;;5097174;28;20431;-57
2022/03/27 12:11:23;;;;;;;33.67;22.80;;;;;;;;;;5095821;28;20032;-56
2022/03/27 12:13:49;;;;;;;33.30;22.55;;;;;;;;;;5092109;28;20024;-57
2022/03/27 12:16:20;;;;;;;35.78;23.05;;;;;;;;;;5098047;28;20096;-58
2022/03/27 12:18:49;;;;;;;33.22;22.73;;;;;;;;;;5093191;28;20043;-57
2022/03/27 12:21:18;;;;;;;31.55;21.40;;;;;;;;;;5095838;28;20085;-58
2022/03/27 12:24:02;;;;;;;29.60;21.17;;;;;;;;;;5096060;28;20086;-58
2022/03/27 12:29:42;;;;;;;34.40;23.08;;;;;;;;;;5097187;28;20084;-58
2022/03/27 12:32:13;;;;;;;35.35;21.98;;;;;;;;;;5093310;28;20032;-58
2022/03/27 12:34:46;;;;;;;32.15;21.48;;;;;;;;;;5092909;28;20201;-59
2022/03/27 12:37:14;;;;;;;;;;;;;;;;;;5093085;28;20023;-58
2022/03/27 12:39:41;;;;;;;32.17;20.95;;;;;;;;;;5097674;28;19941;-58
2022/03/27 12:42:07;;;;;;;29.13;20.48;;;;;;;;;;5091634;28;20307;-58
2022/03/27 12:44:52;;;;;;;32.05;21.77;;;;;;;;;;5088261;28;20075;-58
2022/03/27 12:47:18;;;;;;;30.45;19.75;;;;;;;;;;5096368;28;20495;-60
2022/03/27 12:49:51;;;;;;;30.55;20.45;;;;;;;;;;5092965;28;20028;-58
2022/03/27 12:52:17;;;;;;;26.40;18.63;;;;;;;;;;5097994;28;20078;-58
2022/03/27 12:54:56;;;;;;;28.55;18.85;;;;;;;;;;5096391;28;20257;-58
2022/03/27 12:57:22;;;;;;;25.38;19.00;;;;;;;;;;5098369;28;20023;-58
2022/03/27 12:59:48;;;;;;;26.50;18.10;;;;;;;;;;5093402;28;20020;-59
2022/03/27 13:02:27;;;;;;;25.75;18.35;;;;;;;;;;5094622;28;20092;-58
2022/03/27 13:05:02;;;;;;;24.42;16.88;;;;;;;;;;5094944;28;20072;-58
2022/03/27 13:07:47;;;;;;;26.88;17.88;;;;;;;;;;5094557;28;20080;-57
2022/03/27 13:10:13;;;;;;;24.60;17.67;;;;;;;;;;5092181;28;20929;-58
2022/03/27 13:12:39;;;;;;;24.63;17.00;;;;;;;;;;5092452;28;20058;-58
2022/03/27 13:15:05;;;;;;;25.10;17.42;;;;;;;;;;5091630;28;20056;-58
2022/03/27 13:17:31;;;;;;;22.35;16.27;;;;;;;;;;5093657;28;20032;-58
2022/03/27 13:19:57;;;;;;;18.77;14.95;;;;;;;;;;5091297;28;20035;-58
2022/03/27 13:22:24;;;;;;;21.55;16.00;;;;;;;;;;5095223;28;20032;-58
2022/03/27 13:24:50;;;;;;;21.38;16.60;;;;;;;;;;5094143;28;20070;-58
2022/03/27 13:27:16;;;;;;;20.33;15.50;;;;;;;;;;5093434;28;20351;-57
2022/03/27 13:29:42;;;;;;;17.45;14.57;;;;;;;;;;5091796;28;20020;-58
2022/03/27 13:32:09;;;;;;;23.30;16.85;;;;;;;;;;5093673;28;20035;-58
2022/03/27 13:34:35;;;;;;;23.05;15.50;;;;;;;;;;5090807;28;20187;-58
2022/03/27 13:37:01;;;;;;;22.58;15.77;;;;;;;;;;5094421;28;20028;-57
2022/03/27 13:39:27;;;;;;;21.92;16.83;;;;;;;;;;5092171;28;20032;-58
2022/03/27 13:44:38;;;;;;;22.70;16.13;;;;;;;;;;5098473;28;20557;-58
2022/03/27 13:47:05;;;;;;;23.05;16.30;;;;;;;;;;5093472;28;20031;-59
2022/03/27 13:49:31;;;;;;;23.05;15.40;;;;;;;;;;5092046;28;20027;-58
2022/03/27 13:51:57;;;;;;;21.95;15.32;;;;;;;;;;5093838;28;20725;-58
2022/03/27 13:54:23;;;;;;;21.70;14.98;;;;;;;;;;5093251;28;20032;-58
2022/03/27 13:56:50;;;;;;;18.10;14.15;;;;;;;;;;5090887;28;20031;-58
2022/03/27 13:59:16;;;;;;;17.58;12.98;;;;;;;;;;5094084;28;20550;-59
2022/03/27 14:01:43;;;;;;;17.48;12.50;;;;;;;;;;5091350;28;20039;-58
2022/03/27 14:04:13;;;;;;;17.63;13.30;;;;;;;;;;5088509;28;20085;-58
2022/03/27 14:06:39;;;;;;;19.83;13.10;;;;;;;;;;5094616;28;20027;-58
2022/03/27 14:09:05;;;;;;;20.38;13.85;;;;;;;;;;5098398;28;20043;-58
2022/03/27 14:11:32;;;;;;;20.02;13.73;;;;;;;;;;5091303;28;20066;-59
2022/03/27 14:13:58;;;;;;;19.23;13.80;;;;;;;;;;5095093;28;20039;-58
2022/03/27 14:16:25;;;;;;;21.38;14.63;;;;;;;;;;5093010;28;20042;-59
2022/03/27 14:18:51;;;;;;;16.73;13.10;;;;;;;;;;5093830;28;20386;-59
2022/03/27 14:21:17;;;;;;;17.55;12.88;;;;;;;;;;5093756;28;20026;-57
2022/03/27 14:23:43;;;;;;;18.27;12.43;;;;;;;;;;5094456;28;20024;-59
2022/03/27 14:26:09;;;;;;;18.88;12.48;;;;;;;;;;5091135;28;20063;-58
2022/03/27 14:28:35;;;;;;;18.00;12.40;;;;;;;;;;5089967;28;20028;-58
2022/03/27 14:31:01;;;;;;;14.13;9.77;;;;;;;;;;5092624;28;20039;-58